sensor_id;sensor_type;location;lat;lon;timestamp;temperature;humidity
5334;DHT22;2689;50.954;7.116;2022-07-25T00:01:26;22.30;78.70
5334;DHT22;2689;50.954;7.116;2022-07-25T00:03:53;22.30;79.40
5334;DHT22;2689;50.954;7.116;2022-07-25T00:06:20;22.30;80.10
5334;DHT22;2689;50.954;7.116;2022-07-25T00:08:47;22.20;80.60
5334;DHT22;2689;50.954;7.116;2022-07-25T00:11:13;22.20;80.90
5334;DHT22;2689;50.954;7.116;2022-07-25T00:13:41;22.10;81.10
5334;DHT22;2689;50.954;7.116;2022-07-25T00:16:08;22.10;80.80
5334;DHT22;2689;50.954;7.116;2022-07-25T00:18:35;22.10;81.40
5334;DHT22;2689;50.954;7.116;2022-07-25T00:21:02;22.10;82.40
5334;DHT22;2689;50.954;7.116;2022-07-25T00:23:29;22.00;82.00
5334;DHT22;2689;50.954;7.116;2022-07-25T00:25:55;22.00;82.10
5334;DHT22;2689;50.954;7.116;2022-07-25T00:28:22;21.90;82.40
5334;DHT22;2689;50.954;7.116;2022-07-25T00:30:50;21.90;82.70
5334;DHT22;2689;50.954;7.116;2022-07-25T00:33:17;21.80;82.80
5334;DHT22;2689;50.954;7.116;2022-07-25T00:35:43;21.80;83.50
5334;DHT22;2689;50.954;7.116;2022-07-25T00:38:11;21.70;84.00
5334;DHT22;2689;50.954;7.116;2022-07-25T00:40:37;21.70;84.50
5334;DHT22;2689;50.954;7.116;2022-07-25T00:43:04;21.70;84.00
5334;DHT22;2689;50.954;7.116;2022-07-25T00:45:31;21.70;83.80
5334;DHT22;2689;50.954;7.116;2022-07-25T00:47:59;21.70;83.00
5334;DHT22;2689;50.954;7.116;2022-07-25T00:50:26;21.70;82.30
5334;DHT22;2689;50.954;7.116;2022-07-25T00:52:53;21.70;81.50
5334;DHT22;2689;50.954;7.116;2022-07-25T00:55:22;21.80;81.50
5334;DHT22;2689;50.954;7.116;2022-07-25T00:57:50;21.70;80.80
5334;DHT22;2689;50.954;7.116;2022-07-25T01:00:17;21.80;79.70
5334;DHT22;2689;50.954;7.116;2022-07-25T01:02:45;21.90;79.40
5334;DHT22;2689;50.954;7.116;2022-07-25T01:05:13;21.90;79.20
5334;DHT22;2689;50.954;7.116;2022-07-25T01:07:40;22.00;78.80
5334;DHT22;2689;50.954;7.116;2022-07-25T01:10:08;22.00;78.60
5334;DHT22;2689;50.954;7.116;2022-07-25T01:12:47;22.00;78.70
5334;DHT22;2689;50.954;7.116;2022-07-25T01:15:15;22.00;78.60
5334;DHT22;2689;50.954;7.116;2022-07-25T01:17:42;22.00;78.20
5334;DHT22;2689;50.954;7.116;2022-07-25T01:20:13;22.00;78.30
5334;DHT22;2689;50.954;7.116;2022-07-25T01:22:40;22.00;78.70
5334;DHT22;2689;50.954;7.116;2022-07-25T01:25:08;22.00;78.90
5334;DHT22;2689;50.954;7.116;2022-07-25T01:27:34;22.00;79.00
5334;DHT22;2689;50.954;7.116;2022-07-25T01:30:02;21.90;79.70
5334;DHT22;2689;50.954;7.116;2022-07-25T01:32:29;21.90;79.30
5334;DHT22;2689;50.954;7.116;2022-07-25T01:34:56;21.90;80.20
5334;DHT22;2689;50.954;7.116;2022-07-25T01:37:24;21.80;80.40
5334;DHT22;2689;50.954;7.116;2022-07-25T01:39:50;21.80;81.10
5334;DHT22;2689;50.954;7.116;2022-07-25T01:42:17;21.80;81.50
5334;DHT22;2689;50.954;7.116;2022-07-25T01:44:44;21.80;81.70
5334;DHT22;2689;50.954;7.116;2022-07-25T01:47:11;21.70;82.20
5334;DHT22;2689;50.954;7.116;2022-07-25T01:49:37;21.70;82.90
5334;DHT22;2689;50.954;7.116;2022-07-25T01:52:05;21.70;83.30
5334;DHT22;2689;50.954;7.116;2022-07-25T01:54:33;21.60;84.00
5334;DHT22;2689;50.954;7.116;2022-07-25T01:56:59;21.60;84.40
5334;DHT22;2689;50.954;7.116;2022-07-25T01:59:26;21.60;85.40
5334;DHT22;2689;50.954;7.116;2022-07-25T02:01:53;21.50;85.70
5334;DHT22;2689;50.954;7.116;2022-07-25T02:04:20;21.50;85.90
5334;DHT22;2689;50.954;7.116;2022-07-25T02:06:46;21.40;85.90
5334;DHT22;2689;50.954;7.116;2022-07-25T02:09:14;21.40;86.80
5334;DHT22;2689;50.954;7.116;2022-07-25T02:11:42;21.30;86.90
5334;DHT22;2689;50.954;7.116;2022-07-25T02:14:08;21.30;87.90
5334;DHT22;2689;50.954;7.116;2022-07-25T02:16:35;21.20;88.80
5334;DHT22;2689;50.954;7.116;2022-07-25T02:19:02;21.20;89.60
5334;DHT22;2689;50.954;7.116;2022-07-25T02:21:29;21.20;90.00
5334;DHT22;2689;50.954;7.116;2022-07-25T02:23:55;21.10;90.30
5334;DHT22;2689;50.954;7.116;2022-07-25T02:26:22;21.10;90.50
5334;DHT22;2689;50.954;7.116;2022-07-25T02:28:50;21.00;90.70
5334;DHT22;2689;50.954;7.116;2022-07-25T02:31:17;21.00;91.10
5334;DHT22;2689;50.954;7.116;2022-07-25T02:33:44;21.00;91.50
5334;DHT22;2689;50.954;7.116;2022-07-25T02:36:11;20.90;91.50
5334;DHT22;2689;50.954;7.116;2022-07-25T02:38:38;20.90;91.80
5334;DHT22;2689;50.954;7.116;2022-07-25T02:41:05;20.90;92.20
5334;DHT22;2689;50.954;7.116;2022-07-25T02:43:32;20.90;92.40
5334;DHT22;2689;50.954;7.116;2022-07-25T02:46:00;20.80;92.50
5334;DHT22;2689;50.954;7.116;2022-07-25T02:48:27;20.80;92.80
5334;DHT22;2689;50.954;7.116;2022-07-25T02:50:53;20.80;93.20
5334;DHT22;2689;50.954;7.116;2022-07-25T02:53:20;20.70;93.00
5334;DHT22;2689;50.954;7.116;2022-07-25T02:55:47;20.70;93.10
5334;DHT22;2689;50.954;7.116;2022-07-25T02:58:14;20.70;93.00
5334;DHT22;2689;50.954;7.116;2022-07-25T03:00:40;20.70;93.10
5334;DHT22;2689;50.954;7.116;2022-07-25T03:03:08;20.70;93.20
5334;DHT22;2689;50.954;7.116;2022-07-25T03:05:35;20.70;93.30
5334;DHT22;2689;50.954;7.116;2022-07-25T03:08:02;20.60;93.70
5334;DHT22;2689;50.954;7.116;2022-07-25T03:10:28;20.60;94.00
5334;DHT22;2689;50.954;7.116;2022-07-25T03:12:55;20.60;94.10
5334;DHT22;2689;50.954;7.116;2022-07-25T03:15:22;20.60;94.10
5334;DHT22;2689;50.954;7.116;2022-07-25T03:17:49;20.60;94.10
5334;DHT22;2689;50.954;7.116;2022-07-25T03:20:17;20.50;94.30
5334;DHT22;2689;50.954;7.116;2022-07-25T03:22:43;20.50;94.50
5334;DHT22;2689;50.954;7.116;2022-07-25T03:25:10;20.50;94.70
5334;DHT22;2689;50.954;7.116;2022-07-25T03:27:37;20.50;95.10
5334;DHT22;2689;50.954;7.116;2022-07-25T03:30:05;20.50;95.40
5334;DHT22;2689;50.954;7.116;2022-07-25T03:32:32;20.50;95.70
5334;DHT22;2689;50.954;7.116;2022-07-25T03:34:59;20.40;96.00
5334;DHT22;2689;50.954;7.116;2022-07-25T03:37:27;20.40;96.20
5334;DHT22;2689;50.954;7.116;2022-07-25T03:39:54;20.40;96.50
5334;DHT22;2689;50.954;7.116;2022-07-25T03:42:20;20.30;96.90
5334;DHT22;2689;50.954;7.116;2022-07-25T03:44:48;20.30;97.20
5334;DHT22;2689;50.954;7.116;2022-07-25T03:47:15;20.30;97.20
5334;DHT22;2689;50.954;7.116;2022-07-25T03:49:41;20.30;97.30
5334;DHT22;2689;50.954;7.116;2022-07-25T03:52:08;20.20;97.30
5334;DHT22;2689;50.954;7.116;2022-07-25T03:54:36;20.20;97.50
5334;DHT22;2689;50.954;7.116;2022-07-25T03:57:03;20.20;97.30
5334;DHT22;2689;50.954;7.116;2022-07-25T03:59:30;20.20;97.30
5334;DHT22;2689;50.954;7.116;2022-07-25T04:01:57;20.20;97.20
5334;DHT22;2689;50.954;7.116;2022-07-25T04:04:24;20.20;97.00
5334;DHT22;2689;50.954;7.116;2022-07-25T04:06:50;20.20;96.90
5334;DHT22;2689;50.954;7.116;2022-07-25T04:09:17;20.30;97.20
5334;DHT22;2689;50.954;7.116;2022-07-25T04:11:45;20.30;96.50
5334;DHT22;2689;50.954;7.116;2022-07-25T04:14:12;20.30;95.80
5334;DHT22;2689;50.954;7.116;2022-07-25T04:16:39;20.40;95.60
5334;DHT22;2689;50.954;7.116;2022-07-25T04:19:06;20.40;95.20
5334;DHT22;2689;50.954;7.116;2022-07-25T04:21:33;20.50;95.10
5334;DHT22;2689;50.954;7.116;2022-07-25T04:24:00;20.50;94.90
5334;DHT22;2689;50.954;7.116;2022-07-25T04:26:26;20.50;94.80
5334;DHT22;2689;50.954;7.116;2022-07-25T04:28:55;20.60;94.70
5334;DHT22;2689;50.954;7.116;2022-07-25T04:31:23;20.60;94.80
5334;DHT22;2689;50.954;7.116;2022-07-25T04:33:50;20.60;94.20
5334;DHT22;2689;50.954;7.116;2022-07-25T04:36:16;20.70;94.20
5334;DHT22;2689;50.954;7.116;2022-07-25T04:38:43;20.80;93.80
5334;DHT22;2689;50.954;7.116;2022-07-25T04:41:10;20.80;93.30
5334;DHT22;2689;50.954;7.116;2022-07-25T04:43:36;20.90;93.20
5334;DHT22;2689;50.954;7.116;2022-07-25T04:46:05;21.00;92.90
5334;DHT22;2689;50.954;7.116;2022-07-25T04:48:32;21.10;92.80
5334;DHT22;2689;50.954;7.116;2022-07-25T04:50:59;21.10;92.50
5334;DHT22;2689;50.954;7.116;2022-07-25T04:53:26;21.20;92.30
5334;DHT22;2689;50.954;7.116;2022-07-25T04:55:53;21.40;92.60
5334;DHT22;2689;50.954;7.116;2022-07-25T04:58:20;21.40;91.80
5334;DHT22;2689;50.954;7.116;2022-07-25T05:00:47;21.50;91.90
5334;DHT22;2689;50.954;7.116;2022-07-25T05:03:15;21.60;92.20
5334;DHT22;2689;50.954;7.116;2022-07-25T05:05:41;21.70;92.40
5334;DHT22;2689;50.954;7.116;2022-07-25T05:08:08;21.70;92.00
5334;DHT22;2689;50.954;7.116;2022-07-25T05:10:35;21.80;91.70
5334;DHT22;2689;50.954;7.116;2022-07-25T05:13:02;22.00;91.80
5334;DHT22;2689;50.954;7.116;2022-07-25T05:15:28;22.10;91.40
5334;DHT22;2689;50.954;7.116;2022-07-25T05:17:55;22.30;91.10
5334;DHT22;2689;50.954;7.116;2022-07-25T05:20:24;22.40;90.60
5334;DHT22;2689;50.954;7.116;2022-07-25T05:22:50;22.60;90.10
5334;DHT22;2689;50.954;7.116;2022-07-25T05:25:17;22.70;89.40
5334;DHT22;2689;50.954;7.116;2022-07-25T05:27:45;22.90;89.10
5334;DHT22;2689;50.954;7.116;2022-07-25T05:30:12;23.00;88.00
5334;DHT22;2689;50.954;7.116;2022-07-25T05:32:40;23.20;87.60
5334;DHT22;2689;50.954;7.116;2022-07-25T05:35:08;23.30;87.20
5334;DHT22;2689;50.954;7.116;2022-07-25T05:37:37;23.40;86.40
5334;DHT22;2689;50.954;7.116;2022-07-25T05:40:05;23.50;85.30
5334;DHT22;2689;50.954;7.116;2022-07-25T05:42:32;23.60;84.80
5334;DHT22;2689;50.954;7.116;2022-07-25T05:44:59;23.70;84.80
5334;DHT22;2689;50.954;7.116;2022-07-25T05:47:26;23.80;83.70
5334;DHT22;2689;50.954;7.116;2022-07-25T05:49:52;23.90;82.90
5334;DHT22;2689;50.954;7.116;2022-07-25T05:52:19;24.00;82.00
5334;DHT22;2689;50.954;7.116;2022-07-25T05:54:47;24.10;81.40
5334;DHT22;2689;50.954;7.116;2022-07-25T05:57:14;24.10;80.20
5334;DHT22;2689;50.954;7.116;2022-07-25T05:59:41;24.20;80.00
5334;DHT22;2689;50.954;7.116;2022-07-25T06:02:07;24.30;79.90
5334;DHT22;2689;50.954;7.116;2022-07-25T06:04:34;24.30;79.90
5334;DHT22;2689;50.954;7.116;2022-07-25T06:07:01;24.40;80.00
5334;DHT22;2689;50.954;7.116;2022-07-25T06:09:28;24.40;79.80
5334;DHT22;2689;50.954;7.116;2022-07-25T06:11:57;24.40;79.80
5334;DHT22;2689;50.954;7.116;2022-07-25T06:14:24;24.40;80.40
5334;DHT22;2689;50.954;7.116;2022-07-25T06:16:51;24.40;80.00
5334;DHT22;2689;50.954;7.116;2022-07-25T06:19:18;24.50;79.70
5334;DHT22;2689;50.954;7.116;2022-07-25T06:21:45;24.60;79.90
5334;DHT22;2689;50.954;7.116;2022-07-25T06:24:12;24.60;78.70
5334;DHT22;2689;50.954;7.116;2022-07-25T06:26:38;24.70;78.60
5334;DHT22;2689;50.954;7.116;2022-07-25T06:29:06;24.80;77.90
5334;DHT22;2689;50.954;7.116;2022-07-25T06:31:33;24.90;77.80
5334;DHT22;2689;50.954;7.116;2022-07-25T06:34:00;24.90;78.30
5334;DHT22;2689;50.954;7.116;2022-07-25T06:36:27;25.00;77.50
5334;DHT22;2689;50.954;7.116;2022-07-25T06:38:53;25.10;78.10
5334;DHT22;2689;50.954;7.116;2022-07-25T06:41:20;25.20;77.40
5334;DHT22;2689;50.954;7.116;2022-07-25T06:43:47;25.40;76.90
5334;DHT22;2689;50.954;7.116;2022-07-25T06:46:15;25.60;75.90
5334;DHT22;2689;50.954;7.116;2022-07-25T06:48:41;25.80;75.50
5334;DHT22;2689;50.954;7.116;2022-07-25T06:51:08;25.90;75.10
5334;DHT22;2689;50.954;7.116;2022-07-25T06:53:35;26.10;74.70
5334;DHT22;2689;50.954;7.116;2022-07-25T06:56:02;26.20;74.40
5334;DHT22;2689;50.954;7.116;2022-07-25T06:58:29;26.40;72.90
5334;DHT22;2689;50.954;7.116;2022-07-25T07:00:55;26.70;73.20
5334;DHT22;2689;50.954;7.116;2022-07-25T07:03:24;27.00;71.00
5334;DHT22;2689;50.954;7.116;2022-07-25T07:05:51;27.20;70.50
5334;DHT22;2689;50.954;7.116;2022-07-25T07:08:17;27.40;71.20
5334;DHT22;2689;50.954;7.116;2022-07-25T07:10:44;27.60;69.30
5334;DHT22;2689;50.954;7.116;2022-07-25T07:13:12;27.80;69.10
5334;DHT22;2689;50.954;7.116;2022-07-25T07:15:44;27.80;67.50
5334;DHT22;2689;50.954;7.116;2022-07-25T07:18:11;27.80;68.10
5334;DHT22;2689;50.954;7.116;2022-07-25T07:20:39;27.80;68.70
5334;DHT22;2689;50.954;7.116;2022-07-25T07:23:06;27.80;68.40
5334;DHT22;2689;50.954;7.116;2022-07-25T07:25:33;27.90;68.70
5334;DHT22;2689;50.954;7.116;2022-07-25T07:28:00;28.00;68.30
5334;DHT22;2689;50.954;7.116;2022-07-25T07:30:27;28.00;69.20
5334;DHT22;2689;50.954;7.116;2022-07-25T07:32:53;28.20;68.80
5334;DHT22;2689;50.954;7.116;2022-07-25T07:35:20;28.30;68.10
5334;DHT22;2689;50.954;7.116;2022-07-25T07:37:49;28.40;68.00
5334;DHT22;2689;50.954;7.116;2022-07-25T07:40:17;28.60;68.00
5334;DHT22;2689;50.954;7.116;2022-07-25T07:42:44;28.80;67.00
5334;DHT22;2689;50.954;7.116;2022-07-25T07:45:13;29.20;65.90
5334;DHT22;2689;50.954;7.116;2022-07-25T07:47:41;29.50;66.10
5334;DHT22;2689;50.954;7.116;2022-07-25T07:50:09;29.80;65.70
5334;DHT22;2689;50.954;7.116;2022-07-25T07:52:36;30.10;62.90
5334;DHT22;2689;50.954;7.116;2022-07-25T07:55:05;30.30;61.80
5334;DHT22;2689;50.954;7.116;2022-07-25T07:57:50;30.50;60.30
5334;DHT22;2689;50.954;7.116;2022-07-25T08:00:17;30.80;60.10
5334;DHT22;2689;50.954;7.116;2022-07-25T08:02:46;31.00;59.70
5334;DHT22;2689;50.954;7.116;2022-07-25T08:05:19;31.20;57.70
5334;DHT22;2689;50.954;7.116;2022-07-25T08:07:48;31.30;57.10
5334;DHT22;2689;50.954;7.116;2022-07-25T08:10:18;31.50;57.10
5334;DHT22;2689;50.954;7.116;2022-07-25T08:12:45;31.70;56.40
5334;DHT22;2689;50.954;7.116;2022-07-25T08:15:13;31.80;56.20
5334;DHT22;2689;50.954;7.116;2022-07-25T08:17:40;31.90;55.00
5334;DHT22;2689;50.954;7.116;2022-07-25T08:20:07;31.80;55.00
5334;DHT22;2689;50.954;7.116;2022-07-25T08:22:35;31.80;55.40
5334;DHT22;2689;50.954;7.116;2022-07-25T08:25:03;31.90;54.50
5334;DHT22;2689;50.954;7.116;2022-07-25T08:27:31;31.80;54.30
5334;DHT22;2689;50.954;7.116;2022-07-25T08:29:58;31.80;54.30
5334;DHT22;2689;50.954;7.116;2022-07-25T08:32:26;31.90;55.20
5334;DHT22;2689;50.954;7.116;2022-07-25T08:34:53;31.80;53.70
5334;DHT22;2689;50.954;7.116;2022-07-25T08:37:20;31.80;54.20
5334;DHT22;2689;50.954;7.116;2022-07-25T08:39:46;31.70;54.20
5334;DHT22;2689;50.954;7.116;2022-07-25T08:42:14;31.00;54.10
5334;DHT22;2689;50.954;7.116;2022-07-25T08:44:48;30.80;55.60
5334;DHT22;2689;50.954;7.116;2022-07-25T08:47:15;30.70;55.90
5334;DHT22;2689;50.954;7.116;2022-07-25T08:49:43;30.60;56.70
5334;DHT22;2689;50.954;7.116;2022-07-25T08:52:09;30.60;56.60
5334;DHT22;2689;50.954;7.116;2022-07-25T08:54:36;30.50;55.40
5334;DHT22;2689;50.954;7.116;2022-07-25T08:57:03;30.40;56.30
5334;DHT22;2689;50.954;7.116;2022-07-25T08:59:30;30.40;55.90
5334;DHT22;2689;50.954;7.116;2022-07-25T09:01:59;30.30;54.40
5334;DHT22;2689;50.954;7.116;2022-07-25T09:04:28;30.20;53.80
5334;DHT22;2689;50.954;7.116;2022-07-25T09:06:55;30.30;54.50
5334;DHT22;2689;50.954;7.116;2022-07-25T09:09:29;30.20;54.10
5334;DHT22;2689;50.954;7.116;2022-07-25T09:11:56;30.30;53.90
5334;DHT22;2689;50.954;7.116;2022-07-25T09:14:23;30.30;54.10
5334;DHT22;2689;50.954;7.116;2022-07-25T09:16:50;30.50;54.40
5334;DHT22;2689;50.954;7.116;2022-07-25T09:19:20;31.10;54.20
5334;DHT22;2689;50.954;7.116;2022-07-25T09:21:58;31.50;51.80
5334;DHT22;2689;50.954;7.116;2022-07-25T09:24:26;32.60;50.50
5334;DHT22;2689;50.954;7.116;2022-07-25T09:26:54;33.40;48.80
5334;DHT22;2689;50.954;7.116;2022-07-25T09:29:23;34.20;46.30
5334;DHT22;2689;50.954;7.116;2022-07-25T09:31:51;34.70;46.20
5334;DHT22;2689;50.954;7.116;2022-07-25T09:34:33;35.50;44.90
5334;DHT22;2689;50.954;7.116;2022-07-25T09:37:01;36.40;41.80
5334;DHT22;2689;50.954;7.116;2022-07-25T09:39:33;36.40;40.10
5334;DHT22;2689;50.954;7.116;2022-07-25T09:42:00;36.20;40.30
5334;DHT22;2689;50.954;7.116;2022-07-25T09:44:27;36.50;41.50
5334;DHT22;2689;50.954;7.116;2022-07-25T09:46:55;37.80;40.30
5334;DHT22;2689;50.954;7.116;2022-07-25T09:49:23;38.70;38.20
5334;DHT22;2689;50.954;7.116;2022-07-25T09:51:52;38.60;36.80
5334;DHT22;2689;50.954;7.116;2022-07-25T09:56:48;36.90;38.70
5334;DHT22;2689;50.954;7.116;2022-07-25T09:59:15;35.80;39.70
5334;DHT22;2689;50.954;7.116;2022-07-25T10:01:49;35.20;40.70
5334;DHT22;2689;50.954;7.116;2022-07-25T10:04:20;34.10;43.00
5334;DHT22;2689;50.954;7.116;2022-07-25T10:06:53;33.50;44.50
5334;DHT22;2689;50.954;7.116;2022-07-25T10:09:23;32.90;46.00
5334;DHT22;2689;50.954;7.116;2022-07-25T10:12:02;32.70;47.00
5334;DHT22;2689;50.954;7.116;2022-07-25T10:14:29;32.00;48.10
5334;DHT22;2689;50.954;7.116;2022-07-25T10:16:56;31.40;49.80
5334;DHT22;2689;50.954;7.116;2022-07-25T10:19:39;30.80;51.20
5334;DHT22;2689;50.954;7.116;2022-07-25T10:22:09;30.30;52.80
5334;DHT22;2689;50.954;7.116;2022-07-25T10:24:37;29.90;54.60
5334;DHT22;2689;50.954;7.116;2022-07-25T10:27:07;29.60;55.60
5334;DHT22;2689;50.954;7.116;2022-07-25T10:29:34;29.20;59.60
5334;DHT22;2689;50.954;7.116;2022-07-25T10:32:06;28.90;59.70
5334;DHT22;2689;50.954;7.116;2022-07-25T10:34:33;28.60;61.70
5334;DHT22;2689;50.954;7.116;2022-07-25T10:37:10;28.40;63.50
5334;DHT22;2689;50.954;7.116;2022-07-25T10:39:38;28.10;65.80
5334;DHT22;2689;50.954;7.116;2022-07-25T10:42:05;27.90;65.10
5334;DHT22;2689;50.954;7.116;2022-07-25T10:44:42;27.80;67.20
5334;DHT22;2689;50.954;7.116;2022-07-25T10:47:11;27.80;69.40
5334;DHT22;2689;50.954;7.116;2022-07-25T10:49:39;27.80;70.70
5334;DHT22;2689;50.954;7.116;2022-07-25T10:52:12;28.10;70.00
5334;DHT22;2689;50.954;7.116;2022-07-25T10:54:39;28.20;68.80
5334;DHT22;2689;50.954;7.116;2022-07-25T10:57:14;28.10;65.10
5334;DHT22;2689;50.954;7.116;2022-07-25T10:59:41;27.90;66.30
5334;DHT22;2689;50.954;7.116;2022-07-25T11:02:09;27.80;66.50
5334;DHT22;2689;50.954;7.116;2022-07-25T11:04:40;27.60;67.80
5334;DHT22;2689;50.954;7.116;2022-07-25T11:07:10;27.50;69.70
5334;DHT22;2689;50.954;7.116;2022-07-25T11:09:38;27.90;68.70
5334;DHT22;2689;50.954;7.116;2022-07-25T11:12:05;28.40;66.10
5334;DHT22;2689;50.954;7.116;2022-07-25T11:14:33;28.80;67.30
5334;DHT22;2689;50.954;7.116;2022-07-25T11:17:12;28.90;64.00
5334;DHT22;2689;50.954;7.116;2022-07-25T11:19:40;28.80;61.10
5334;DHT22;2689;50.954;7.116;2022-07-25T11:22:09;29.70;60.10
5334;DHT22;2689;50.954;7.116;2022-07-25T11:24:38;30.10;57.90
5334;DHT22;2689;50.954;7.116;2022-07-25T11:27:07;30.00;58.10
5334;DHT22;2689;50.954;7.116;2022-07-25T11:29:35;30.00;58.60
5334;DHT22;2689;50.954;7.116;2022-07-25T11:32:03;29.80;57.60
5334;DHT22;2689;50.954;7.116;2022-07-25T11:34:33;29.50;59.00
5334;DHT22;2689;50.954;7.116;2022-07-25T11:37:02;29.60;58.70
5334;DHT22;2689;50.954;7.116;2022-07-25T11:39:31;29.60;58.60
5334;DHT22;2689;50.954;7.116;2022-07-25T11:42:03;29.60;58.20
5334;DHT22;2689;50.954;7.116;2022-07-25T11:44:35;29.30;59.00
5334;DHT22;2689;50.954;7.116;2022-07-25T11:47:02;29.10;59.00
5334;DHT22;2689;50.954;7.116;2022-07-25T11:49:29;29.00;59.20
5334;DHT22;2689;50.954;7.116;2022-07-25T11:51:56;29.20;58.70
5334;DHT22;2689;50.954;7.116;2022-07-25T11:54:23;29.20;58.30
5334;DHT22;2689;50.954;7.116;2022-07-25T11:56:51;30.20;57.40
5334;DHT22;2689;50.954;7.116;2022-07-25T11:59:18;30.90;54.30
5334;DHT22;2689;50.954;7.116;2022-07-25T12:01:45;31.70;53.10
5334;DHT22;2689;50.954;7.116;2022-07-25T12:04:14;31.60;52.20
5334;DHT22;2689;50.954;7.116;2022-07-25T12:06:41;31.10;52.50
5334;DHT22;2689;50.954;7.116;2022-07-25T12:09:10;30.70;53.50
5334;DHT22;2689;50.954;7.116;2022-07-25T12:11:36;30.30;54.50
5334;DHT22;2689;50.954;7.116;2022-07-25T12:14:05;30.30;55.30
5334;DHT22;2689;50.954;7.116;2022-07-25T12:16:32;30.70;54.70
5334;DHT22;2689;50.954;7.116;2022-07-25T12:18:59;30.70;54.00
5334;DHT22;2689;50.954;7.116;2022-07-25T12:21:26;30.40;53.80
5334;DHT22;2689;50.954;7.116;2022-07-25T12:23:53;30.10;54.60
5334;DHT22;2689;50.954;7.116;2022-07-25T12:26:20;30.40;54.20
5334;DHT22;2689;50.954;7.116;2022-07-25T12:28:46;30.30;53.70
5334;DHT22;2689;50.954;7.116;2022-07-25T12:31:15;29.90;53.10
5334;DHT22;2689;50.954;7.116;2022-07-25T12:33:41;30.00;52.80
5334;DHT22;2689;50.954;7.116;2022-07-25T12:36:11;30.00;52.60
5334;DHT22;2689;50.954;7.116;2022-07-25T12:38:38;30.20;53.00
5334;DHT22;2689;50.954;7.116;2022-07-25T12:41:05;30.70;51.80
5334;DHT22;2689;50.954;7.116;2022-07-25T12:43:32;30.60;51.10
5334;DHT22;2689;50.954;7.116;2022-07-25T12:45:58;30.00;51.80
5334;DHT22;2689;50.954;7.116;2022-07-25T12:48:26;30.00;52.80
5334;DHT22;2689;50.954;7.116;2022-07-25T12:50:53;29.90;52.90
5334;DHT22;2689;50.954;7.116;2022-07-25T12:53:20;29.70;52.80
5334;DHT22;2689;50.954;7.116;2022-07-25T12:55:47;29.50;53.90
5334;DHT22;2689;50.954;7.116;2022-07-25T12:58:14;29.60;53.70
5334;DHT22;2689;50.954;7.116;2022-07-25T13:00:42;29.70;53.30
5334;DHT22;2689;50.954;7.116;2022-07-25T13:03:09;30.00;54.30
5334;DHT22;2689;50.954;7.116;2022-07-25T13:05:38;30.30;52.80
5334;DHT22;2689;50.954;7.116;2022-07-25T13:08:05;30.10;53.00
5334;DHT22;2689;50.954;7.116;2022-07-25T13:10:32;29.90;53.70
5334;DHT22;2689;50.954;7.116;2022-07-25T13:12:59;29.80;54.20
5334;DHT22;2689;50.954;7.116;2022-07-25T13:15:32;29.60;54.80
5334;DHT22;2689;50.954;7.116;2022-07-25T13:18:01;29.40;55.40
5334;DHT22;2689;50.954;7.116;2022-07-25T13:20:28;29.70;55.70
5334;DHT22;2689;50.954;7.116;2022-07-25T13:22:57;30.40;54.50
5334;DHT22;2689;50.954;7.116;2022-07-25T13:25:23;30.60;54.00
5334;DHT22;2689;50.954;7.116;2022-07-25T13:27:50;30.60;54.00
5334;DHT22;2689;50.954;7.116;2022-07-25T13:30:17;30.80;53.70
5334;DHT22;2689;50.954;7.116;2022-07-25T13:32:44;30.80;53.00
5334;DHT22;2689;50.954;7.116;2022-07-25T13:35:10;30.30;53.40
5334;DHT22;2689;50.954;7.116;2022-07-25T13:37:37;30.00;55.30
5334;DHT22;2689;50.954;7.116;2022-07-25T13:40:06;29.80;56.10
5334;DHT22;2689;50.954;7.116;2022-07-25T13:42:33;29.70;56.20
5334;DHT22;2689;50.954;7.116;2022-07-25T13:45:00;29.50;56.70
5334;DHT22;2689;50.954;7.116;2022-07-25T13:47:26;29.50;57.10
5334;DHT22;2689;50.954;7.116;2022-07-25T13:49:54;29.00;57.50
5334;DHT22;2689;50.954;7.116;2022-07-25T13:52:21;28.90;58.40
5334;DHT22;2689;50.954;7.116;2022-07-25T13:54:48;28.60;58.80
5334;DHT22;2689;50.954;7.116;2022-07-25T13:57:16;28.60;58.80
5334;DHT22;2689;50.954;7.116;2022-07-25T13:59:43;28.60;59.10
5334;DHT22;2689;50.954;7.116;2022-07-25T14:02:10;28.50;59.50
5334;DHT22;2689;50.954;7.116;2022-07-25T14:04:37;28.50;60.00
5334;DHT22;2689;50.954;7.116;2022-07-25T14:07:04;28.40;60.20
5334;DHT22;2689;50.954;7.116;2022-07-25T14:09:31;28.40;59.70
5334;DHT22;2689;50.954;7.116;2022-07-25T14:11:58;28.50;59.50
5334;DHT22;2689;50.954;7.116;2022-07-25T14:14:26;28.60;59.60
5334;DHT22;2689;50.954;7.116;2022-07-25T14:16:52;28.90;59.20
5334;DHT22;2689;50.954;7.116;2022-07-25T14:19:19;29.30;58.50
5334;DHT22;2689;50.954;7.116;2022-07-25T14:21:48;29.70;57.30
5334;DHT22;2689;50.954;7.116;2022-07-25T14:24:14;30.10;56.10
5334;DHT22;2689;50.954;7.116;2022-07-25T14:26:41;29.90;55.50
5334;DHT22;2689;50.954;7.116;2022-07-25T14:29:08;29.90;56.20
5334;DHT22;2689;50.954;7.116;2022-07-25T14:31:39;30.00;56.10
5334;DHT22;2689;50.954;7.116;2022-07-25T14:34:06;29.80;56.00
5334;DHT22;2689;50.954;7.116;2022-07-25T14:36:33;29.50;55.50
5334;DHT22;2689;50.954;7.116;2022-07-25T14:39:01;29.20;56.50
5334;DHT22;2689;50.954;7.116;2022-07-25T14:41:28;28.90;57.50
5334;DHT22;2689;50.954;7.116;2022-07-25T14:43:55;28.70;57.60
5334;DHT22;2689;50.954;7.116;2022-07-25T14:46:22;28.50;57.20
5334;DHT22;2689;50.954;7.116;2022-07-25T14:48:50;28.40;58.10
5334;DHT22;2689;50.954;7.116;2022-07-25T14:51:18;28.10;57.70
5334;DHT22;2689;50.954;7.116;2022-07-25T14:53:45;28.00;57.70
5334;DHT22;2689;50.954;7.116;2022-07-25T14:56:12;27.90;57.40
5334;DHT22;2689;50.954;7.116;2022-07-25T14:58:39;27.70;57.70
5334;DHT22;2689;50.954;7.116;2022-07-25T15:01:06;27.70;57.60
5334;DHT22;2689;50.954;7.116;2022-07-25T15:03:33;27.70;57.90
5334;DHT22;2689;50.954;7.116;2022-07-25T15:06:02;27.60;58.00
5334;DHT22;2689;50.954;7.116;2022-07-25T15:08:30;27.50;58.20
5334;DHT22;2689;50.954;7.116;2022-07-25T15:10:57;27.50;58.60
5334;DHT22;2689;50.954;7.116;2022-07-25T15:13:24;27.50;58.60
5334;DHT22;2689;50.954;7.116;2022-07-25T15:15:50;27.40;58.80
5334;DHT22;2689;50.954;7.116;2022-07-25T15:18:17;27.30;59.30
5334;DHT22;2689;50.954;7.116;2022-07-25T15:20:44;27.20;60.20
5334;DHT22;2689;50.954;7.116;2022-07-25T15:23:14;27.30;60.00
5334;DHT22;2689;50.954;7.116;2022-07-25T15:25:41;27.20;60.30
5334;DHT22;2689;50.954;7.116;2022-07-25T15:28:07;27.10;60.60
5334;DHT22;2689;50.954;7.116;2022-07-25T15:30:34;27.00;60.90
5334;DHT22;2689;50.954;7.116;2022-07-25T15:33:01;26.90;61.40
5334;DHT22;2689;50.954;7.116;2022-07-25T15:35:27;26.80;62.60
5334;DHT22;2689;50.954;7.116;2022-07-25T15:37:54;26.70;63.50
5334;DHT22;2689;50.954;7.116;2022-07-25T15:40:22;26.70;63.80
5334;DHT22;2689;50.954;7.116;2022-07-25T15:42:49;26.80;64.00
5334;DHT22;2689;50.954;7.116;2022-07-25T15:45:16;26.70;64.50
5334;DHT22;2689;50.954;7.116;2022-07-25T15:47:45;26.60;64.20
5334;DHT22;2689;50.954;7.116;2022-07-25T15:50:12;26.40;64.60
5334;DHT22;2689;50.954;7.116;2022-07-25T15:52:38;26.20;65.40
5334;DHT22;2689;50.954;7.116;2022-07-25T15:55:06;26.00;66.10
5334;DHT22;2689;50.954;7.116;2022-07-25T15:57:34;26.10;66.90
5334;DHT22;2689;50.954;7.116;2022-07-25T16:00:00;26.00;66.10
5334;DHT22;2689;50.954;7.116;2022-07-25T16:02:27;25.80;66.70
5334;DHT22;2689;50.954;7.116;2022-07-25T16:04:54;25.70;67.00
5334;DHT22;2689;50.954;7.116;2022-07-25T16:07:21;25.60;67.50